ADDS METAR Data INFO
IDs: Format: Raw Decoded Include TAF

Data at: 1113 UTC 13 Dec 2017

KTPF 131055Z AUTO 01007KT 10SM 10/03 A3009 RMK AO2
KTPF 131035Z AUTO 02007KT 10SM 10/03 A3008 RMK AO2
KTPF 131015Z AUTO 02006KT 10SM 10/03 A3007 RMK AO2
KTPF 130955Z AUTO 02005KT 10SM 10/03 A3006 RMK AO2
KTPF 130935Z AUTO 02006KT 10SM 10/03 A3006 RMK AO2
KTPF 130915Z AUTO 02005KT 10SM 10/03 A3005 RMK AO2
KTPF 130855Z AUTO 01007G14KT 10SM 11/04 A3005 RMK AO2
KTPF 130835Z AUTO 01006KT 10SM 11/04 A3005 RMK AO2
KTPF 130815Z AUTO 01005KT 10SM 11/04 A3005 RMK AO2
KTPF 130755Z AUTO 01005KT 10SM 11/05 A3005 RMK AO2
KTPF 130735Z AUTO 02008KT 10SM 11/05 A3004 RMK AO2
KTPF 130715Z AUTO 02005KT 10SM 11/06 A3004 RMK AO2
KTPF 130655Z AUTO 36004KT 10SM 12/06 A3004 RMK AO2
KTPF 130635Z AUTO 36003KT 10SM 12/06 A3004 RMK AO2
KTPF 130615Z AUTO 35005KT 10SM 12/06 A3003 RMK AO2
KTPF 130555Z AUTO 36003KT 10SM 12/07 A3003 RMK AO2
KTPF 130535Z AUTO 35005KT 10SM 13/07 A3003 RMK AO2
KTPF 130515Z AUTO 36005KT 10SM 13/07 A3004 RMK AO2
KTPF 130455Z AUTO 35005KT 10SM 13/07 A3004 RMK AO2
KTPF 130435Z AUTO 35005KT 10SM 13/08 A3004 RMK AO2
KTPF 130415Z AUTO 35006KT 10SM 14/08 A3004 RMK AO2
KTPF 130355Z AUTO 35005KT 10SM 14/08 A3003 RMK AO2
KTPF 130335Z AUTO 34003KT 10SM 14/09 A3002 RMK AO2
KTPF 130315Z AUTO 00000KT 10SM 15/09 A3001 RMK AO2
KTPF 130255Z AUTO 00000KT 10SM 15/09 A3001 RMK AO2
KTPF 130235Z AUTO 32003KT 10SM 15/09 A3001 RMK AO2
KTPF 130215Z AUTO 34004KT 10SM 16/08 A3001 RMK AO2
KTPF 130155Z AUTO 32006KT 10SM 16/08 A3001 RMK AO2
KTPF 130135Z AUTO 32008KT 285V345 10SM 16/08 A3000 RMK AO2
KTPF 130115Z AUTO 31008KT 10SM 16/09 A3000 RMK AO2
KTPF 130055Z AUTO 32009KT 10SM 17/09 A2999 RMK AO2
KTPF 130035Z AUTO 31006KT 10SM 17/10 A2998 RMK AO2
KTPF 130015Z AUTO 32007G16KT 10SM 17/11 A2998 RMK AO2
KTPF 122355Z AUTO 32008KT 10SM 18/12 A2996 RMK AO2
KTPF 122335Z AUTO 31008KT 10SM 18/15 A2996 RMK AO2
KTPF 122315Z AUTO 31005KT 10SM 18/15 A2995 RMK AO2
KTPF 122255Z AUTO 29007KT 10SM 18/15 A2994 RMK AO2
KTPF 122235Z AUTO 31006KT 10SM 18/15 A2994 RMK AO2
KTPF 122215Z AUTO 31008G16KT 10SM 20/13 A2994 RMK AO2
KTPF 122155Z AUTO 28008G14KT 10SM 21/12 A2993 RMK AO2
KTPF 122135Z AUTO 28007G14KT 10SM 21/12 A2993 RMK AO2
KTPF 122115Z AUTO 28008G17KT 10SM 21/11 A2993 RMK AO2
KTPF 122055Z AUTO 28010G17KT 10SM 21/11 A2994 RMK AO2
KTPF 122035Z AUTO 28009G17KT 10SM 22/12 A2994 RMK AO2
KTPF 122015Z AUTO 29009G19KT 10SM 21/12 A2995 RMK AO2
KTPF 121955Z AUTO 28008G19KT 7SM 22/12 A2995 RMK AO2
KTPF 121935Z AUTO 27009G17KT 10SM 22/12 A2995 RMK AO2
KTPF 121915Z AUTO 28010G16KT 10SM 22/12 A2995 RMK AO2
KTPF 121855Z AUTO 28008G16KT 10SM 22/12 A2996 RMK AO2
KTPF 121835Z AUTO 28007G17KT 10SM 22/12 A2997 RMK AO2
KTPF 121815Z AUTO 28008G16KT 10SM 22/12 A2998 RMK AO2
KTPF 121755Z AUTO 28009G14KT 10SM 22/12 A2998 RMK AO2
KTPF 121735Z AUTO 29010G17KT 10SM 21/12 A2999 RMK AO2
KTPF 121715Z AUTO 28010G17KT 10SM 22/12 A3000 RMK AO2
KTPF 121655Z AUTO 28009G14KT 10SM 22/12 A3001 RMK AO2
KTPF 121635Z AUTO 28007KT 10SM 21/13 A3003 RMK AO2
KTPF 121615Z AUTO 28008KT 10SM 21/13 A3004 RMK AO2
KTPF 121555Z AUTO 21008KT 10SM 20/13 A3005 RMK AO2
KTPF 121535Z AUTO 19007KT 10SM 18/14 A3005 RMK AO2
KTPF 121515Z AUTO 20007KT 10SM 17/13 A3006 RMK AO2
KTPF 121435Z AUTO 19008KT 10SM 16/13 A3007 RMK AO2
KTPF 121415Z AUTO 20009KT 10SM 16/13 A3007 RMK AO2
KTPF 121355Z AUTO 19007KT 10SM 15/13 A3007 RMK AO2
KTPF 121335Z AUTO 18007KT 10SM 14/12 A3007 RMK AO2
KTPF 121315Z AUTO 18006KT 10SM 14/12 A3007 RMK AO2
KTPF 121255Z AUTO 18007KT 10SM 14/12 A3008 RMK AO2
KTPF 121235Z AUTO 19006KT 10SM 14/13 A3008 RMK AO2
KTPF 121215Z AUTO 19006KT 10SM 13/13 A3007 RMK AO2
KTPF 121155Z AUTO 15003KT 10SM 12/12 A3007 RMK AO2
KTPF 121135Z AUTO 15005KT 10SM 12/11 A3007 RMK AO2
KTPF 121115Z AUTO 16006KT 10SM 13/12 A3007 RMK AO2
KTPF 121055Z AUTO 17007KT 10SM 13/12 A3007 RMK AO2
KTPF 121035Z AUTO 19006KT 10SM 13/12 A3007 RMK AO2
KTPF 121015Z AUTO 18006KT 10SM 13/11 A3007 RMK AO2
KTPF 120955Z AUTO 17006KT 10SM 12/11 A3008 RMK AO2
KTPF 120935Z AUTO 18006KT 10SM 12/11 A3009 RMK AO2
KTPF 120915Z AUTO 18008KT 10SM 13/11 A3009 RMK AO2
KTPF 120855Z AUTO 19008KT 10SM 12/11 A3009 RMK AO2
KTPF 120835Z AUTO 19009KT 10SM 13/11 A3009 RMK AO2
KTPF 120815Z AUTO 20010KT 10SM 13/11 A3010 RMK AO2
KTPF 120755Z AUTO 19010KT 10SM 13/11 A3010 RMK AO2
KTPF 120735Z AUTO 17009KT 10SM 12/11 A3011 RMK AO2
KTPF 120715Z AUTO 17006KT 10SM 12/10 A3011 RMK AO2
KTPF 120655Z AUTO 18006KT 10SM 12/10 A3012 RMK AO2
KTPF 120635Z AUTO 18004KT 10SM 12/12 A3012 RMK AO2
KTPF 120615Z AUTO 00000KT 10SM 09/09 A3012 RMK AO2
KTPF 120555Z AUTO 00000KT 10SM 09/08 A3013 RMK AO2
KTPF 120535Z AUTO 00000KT 10SM 09/08 A3014 RMK AO2
KTPF 120515Z AUTO 00000KT 10SM 09/08 A3015 RMK AO2
KTPF 120455Z AUTO 00000KT 10SM 09/08 A3015 RMK AO2
KTPF 120435Z AUTO 00000KT 10SM 09/08 A3016 RMK AO2
KTPF 120415Z AUTO 00000KT 10SM 09/08 A3017 RMK AO2
KTPF 120355Z AUTO 00000KT 10SM 09/07 A3018 RMK AO2
KTPF 120335Z AUTO 00000KT 10SM 09/07 A3019 RMK AO2
KTPF 120315Z AUTO 00000KT 10SM 09/07 A3019 RMK AO2
KTPF 120255Z AUTO 00000KT 10SM 10/07 A3019 RMK AO2
KTPF 120235Z AUTO 00000KT 10SM 10/07 A3019 RMK AO2
KTPF 120215Z AUTO 00000KT 10SM 09/07 A3019 RMK AO2
KTPF 120155Z AUTO 00000KT 10SM 10/07 A3020 RMK AO2
KTPF 120135Z AUTO 00000KT 10SM 10/06 A3020 RMK AO2
KTPF 120115Z AUTO 00000KT 10SM 10/06 A3021 RMK AO2
KTPF 120055Z AUTO 00000KT 10SM 11/06 A3020 RMK AO2
KTPF 120035Z AUTO 00000KT 10SM 11/06 A3020 RMK AO2
KTPF 120015Z AUTO 00000KT 10SM 12/06 A3020 RMK AO2
KTPF 112355Z AUTO 00000KT 10SM 12/06 A3020 RMK AO2
KTPF 112335Z AUTO 00000KT 10SM 12/05 A3020 RMK AO2
KTPF 112315Z AUTO 00000KT 10SM 13/06 A3019 RMK AO2